Time;durP1;ratioP1;P1;durP2;ratioP2;P2;SDS_P1;SDS_P2;PMS_P1;PMS_P2;Temp;Humidity;BMP_temperature;BMP_pressure;BME280_temperature;BME280_humidity;BME280_pressure;Samples;Min_cycle;Max_cycle;Signal;HPM_P1;HPM_P2
2023/04/12 00:01:35;;;;;;;5.55;1.90;;;;;;;;;;7390348;19;20771;-71
2023/04/12 00:04:04;;;;;;;8.77;2.65;;;;;;;;;;7394381;19;20058;-71
2023/04/12 00:06:33;;;;;;;6.10;1.83;;;;;;;;;;7393434;19;19991;-71
2023/04/12 00:09:00;;;;;;;7.00;1.85;;;;;;;;;;7395397;19;20011;-72
2023/04/12 00:11:27;;;;;;;7.30;2.10;;;;;;;;;;7391526;19;20042;-72
2023/04/12 00:13:53;;;;;;;5.82;1.88;;;;;;;;;;7391443;19;20330;-71
2023/04/12 00:16:18;;;;;;;8.93;2.05;;;;;;;;;;7392634;19;20005;-71
2023/04/12 00:18:44;;;;;;;8.45;2.30;;;;;;;;;;7392822;19;20461;-71
2023/04/12 00:21:10;;;;;;;6.65;1.80;;;;;;;;;;7392980;19;20018;-71
2023/04/12 00:23:36;;;;;;;4.40;1.92;;;;;;;;;;7389370;19;19998;-70
2023/04/12 00:26:03;;;;;;;6.15;1.90;;;;;;;;;;7393065;19;20014;-71
2023/04/12 00:28:28;;;;;;;9.88;2.15;;;;;;;;;;7391623;19;20003;-70
2023/04/12 00:30:53;;;;;;;4.85;1.85;;;;;;;;;;7390761;19;20420;-72
2023/04/12 00:33:19;;;;;;;5.07;1.80;;;;;;;;;;7391352;19;20003;-72
2023/04/12 00:35:44;;;;;;;7.18;1.63;;;;;;;;;;7391942;19;20001;-72
2023/04/12 00:38:09;;;;;;;4.45;1.90;;;;;;;;;;7389696;19;20007;-72
2023/04/12 00:40:39;;;;;;;6.68;1.80;;;;;;;;;;7387798;19;20006;-71
2023/04/12 00:43:05;;;;;;;5.25;1.77;;;;;;;;;;7391248;19;20006;-71
2023/04/12 00:45:30;;;;;;;5.32;1.75;;;;;;;;;;7391745;19;20289;-72
2023/04/12 00:47:56;;;;;;;8.05;1.83;;;;;;;;;;7389958;19;20472;-71
2023/04/12 00:50:22;;;;;;;12.60;2.70;;;;;;;;;;7388370;19;19997;-71
2023/04/12 00:52:47;;;;;;;4.72;1.90;;;;;;;;;;7392013;19;20467;-71
2023/04/12 00:55:14;;;;;;;4.32;1.50;;;;;;;;;;7391001;19;20025;-71
2023/04/12 00:57:40;;;;;;;4.85;1.92;;;;;;;;;;7389014;19;20475;-70
2023/04/12 01:00:11;;;;;;;8.43;2.03;;;;;;;;;;7388489;19;20007;-71
2023/04/12 01:02:38;;;;;;;7.10;2.15;;;;;;;;;;7388836;19;20002;-71
2023/04/12 01:05:05;;;;;;;11.02;2.22;;;;;;;;;;7391215;19;20007;-71
2023/04/12 01:07:30;;;;;;;8.43;1.90;;;;;;;;;;7391036;19;20024;-71
2023/04/12 01:10:30;;;;;;;8.05;2.35;;;;;;;;;;7390714;19;20392;-71
2023/04/12 01:13:14;;;;;;;6.47;2.10;;;;;;;;;;7390341;19;20003;-71
2023/04/12 01:16:14;;;;;;;7.05;1.77;;;;;;;;;;7392140;19;20002;-70
2023/04/12 01:18:42;;;;;;;7.15;1.88;;;;;;;;;;7389829;19;20011;-71
2023/04/12 01:21:12;;;;;;;8.82;2.42;;;;;;;;;;7388194;19;20002;-70
2023/04/12 01:24:14;;;;;;;4.65;1.67;;;;;;;;;;7390420;19;20440;-71
2023/04/12 01:26:45;;;;;;;4.13;1.95;;;;;;;;;;7395414;19;20007;-71
2023/04/12 01:29:13;;;;;;;9.90;2.45;;;;;;;;;;7390838;19;20019;-71
2023/04/12 01:31:41;;;;;;;6.25;1.92;;;;;;;;;;7389399;19;19999;-71
2023/04/12 01:34:10;;;;;;;3.63;1.90;;;;;;;;;;7388278;19;20014;-71
2023/04/12 01:36:37;;;;;;;5.43;1.55;;;;;;;;;;7388687;19;20564;-70
2023/04/12 01:39:03;;;;;;;7.20;2.20;;;;;;;;;;7390353;19;20017;-71
2023/04/12 01:41:31;;;;;;;6.70;1.67;;;;;;;;;;7387429;19;20003;-71
2023/04/12 01:43:56;;;;;;;9.98;1.92;;;;;;;;;;7388513;19;20011;-71
2023/04/12 01:46:22;;;;;;;5.55;2.28;;;;;;;;;;7387706;19;20009;-71
2023/04/12 01:48:51;;;;;;;4.95;1.73;;;;;;;;;;7389486;19;19995;-71
2023/04/12 01:51:42;;;;;;;10.07;1.65;;;;;;;;;;7386314;19;20121;-71
2023/04/12 01:54:10;;;;;;;3.65;1.45;;;;;;;;;;7386712;19;20043;-70
2023/04/12 01:56:39;;;;;;;7.18;1.77;;;;;;;;;;7389501;19;20467;-70
2023/04/12 01:59:04;;;;;;;5.45;1.90;;;;;;;;;;7388997;19;20006;-71
2023/04/12 02:01:30;;;;;;;4.05;1.83;;;;;;;;;;7386653;19;19998;-70
2023/04/12 02:03:59;;;;;;;5.55;2.30;;;;;;;;;;7391568;19;20003;-70
2023/04/12 02:06:25;;;;;;;8.30;2.00;;;;;;;;;;7388934;19;20002;-70
2023/04/12 02:08:57;;;;;;;6.30;2.00;;;;;;;;;;7388777;19;20333;-70
2023/04/12 02:11:22;;;;;;;7.28;2.15;;;;;;;;;;7387498;19;20496;-71
2023/04/12 02:13:48;;;;;;;9.68;2.13;;;;;;;;;;7388350;19;20007;-70
2023/04/12 02:16:13;;;;;;;9.88;2.20;;;;;;;;;;7386846;19;20022;-70
2023/04/12 02:18:40;;;;;;;11.32;2.22;;;;;;;;;;7388583;19;19994;-70
2023/04/12 02:21:06;;;;;;;5.15;1.90;;;;;;;;;;7387117;19;20011;-70
2023/04/12 02:23:31;;;;;;;7.43;1.95;;;;;;;;;;7391005;19;20007;-70
2023/04/12 02:25:56;;;;;;;3.63;2.00;;;;;;;;;;7388437;19;20011;-70
2023/04/12 02:28:22;;;;;;;6.68;2.20;;;;;;;;;;7386274;19;20006;-70
2023/04/12 02:30:47;;;;;;;7.88;2.42;;;;;;;;;;7387486;19;20009;-70
2023/04/12 02:33:14;;;;;;;9.05;2.30;;;;;;;;;;7387554;19;20457;-70
2023/04/12 02:35:40;;;;;;;5.88;2.15;;;;;;;;;;7388120;19;20007;-70
2023/04/12 02:38:07;;;;;;;3.47;1.70;;;;;;;;;;7388301;19;20006;-70
2023/04/12 02:40:42;;;;;;;5.70;1.98;;;;;;;;;;7386580;19;19999;-70
2023/04/12 02:43:08;;;;;;;7.07;2.00;;;;;;;;;;7386709;19;20003;-73
2023/04/12 02:45:33;;;;;;;6.47;2.30;;;;;;;;;;7389036;19;20560;-71
2023/04/12 02:47:59;;;;;;;3.28;1.80;;;;;;;;;;7391941;19;20003;-70
2023/04/12 02:50:24;;;;;;;5.47;2.10;;;;;;;;;;7388698;19;20011;-70
2023/04/12 02:52:50;;;;;;;5.75;1.90;;;;;;;;;;7388868;19;20006;-70
2023/04/12 02:55:16;;;;;;;4.43;1.90;;;;;;;;;;7387913;19;20058;-70
2023/04/12 02:57:44;;;;;;;7.10;2.00;;;;;;;;;;7386033;19;20011;-70
2023/04/12 03:00:14;;;;;;;9.77;2.65;;;;;;;;;;7386704;19;20481;-71
2023/04/12 03:02:39;;;;;;;6.40;2.10;;;;;;;;;;7391592;19;20527;-70
2023/04/12 03:05:06;;;;;;;7.45;2.92;;;;;;;;;;7393681;19;20006;-70
2023/04/12 03:07:31;;;;;;;6.03;2.50;;;;;;;;;;7393820;19;20021;-69
2023/04/12 03:09:56;;;;;;;7.47;2.10;;;;;;;;;;7395390;19;20003;-71
2023/04/12 03:12:22;;;;;;;9.45;2.65;;;;;;;;;;7393835;19;20356;-70
2023/04/12 03:14:47;;;;;;;8.95;2.55;;;;;;;;;;7392243;19;20769;-70
2023/04/12 03:17:13;;;;;;;5.63;2.10;;;;;;;;;;7395181;19;20459;-71
2023/04/12 03:19:38;;;;;;;6.90;2.55;;;;;;;;;;7395057;19;20463;-71
2023/04/12 03:22:04;;;;;;;7.88;2.50;;;;;;;;;;7394259;19;20446;-71
2023/04/12 03:24:34;;;;;;;6.43;2.20;;;;;;;;;;7394858;19;20078;-70
2023/04/12 03:27:03;;;;;;;4.30;2.28;;;;;;;;;;7392804;19;20010;-71
2023/04/12 03:29:29;;;;;;;7.20;3.13;;;;;;;;;;7394616;19;20017;-71
2023/04/12 03:31:57;;;;;;;9.07;2.90;;;;;;;;;;7391068;19;20011;-71
2023/04/12 03:34:23;;;;;;;8.15;3.00;;;;;;;;;;7391739;19;20088;-70
2023/04/12 03:36:49;;;;;;;6.55;2.92;;;;;;;;;;7392587;19;20033;-70
2023/04/12 03:39:14;;;;;;;7.85;2.78;;;;;;;;;;7393768;19;19999;-70
2023/04/12 03:41:39;;;;;;;6.55;3.65;;;;;;;;;;7391056;19;20005;-71
2023/04/12 03:44:06;;;;;;;10.27;3.40;;;;;;;;;;7392901;19;20009;-71
2023/04/12 03:46:31;;;;;;;9.90;3.22;;;;;;;;;;7395099;19;20515;-70
2023/04/12 03:48:57;;;;;;;5.60;2.80;;;;;;;;;;7394705;19;20007;-71
2023/04/12 03:51:25;;;;;;;10.93;3.60;;;;;;;;;;7392049;19;20033;-70
2023/04/12 03:53:52;;;;;;;8.05;3.42;;;;;;;;;;7391645;19;20002;-70
2023/04/12 03:56:19;;;;;;;8.55;3.20;;;;;;;;;;7393272;19;20002;-70
2023/04/12 03:58:45;;;;;;;8.25;3.70;;;;;;;;;;7393096;19;20003;-71
2023/04/12 04:01:12;;;;;;;10.15;4.38;;;;;;;;;;7390775;19;20010;-70
2023/04/12 04:03:41;;;;;;;17.10;4.45;;;;;;;;;;7391453;19;20040;-71
2023/04/12 04:06:07;;;;;;;6.90;3.67;;;;;;;;;;7392892;19;19999;-70
2023/04/12 04:08:33;;;;;;;9.05;4.47;;;;;;;;;;7397321;19;20014;-71
2023/04/12 04:10:59;;;;;;;9.68;4.38;;;;;;;;;;7392977;19;19998;-70
2023/04/12 04:13:25;;;;;;;8.75;4.82;;;;;;;;;;7388292;19;20424;-70
2023/04/12 04:15:59;;;;;;;12.07;5.10;;;;;;;;;;7392711;19;20015;-70
2023/04/12 04:18:24;;;;;;;12.30;5.78;;;;;;;;;;7391958;19;19994;-69
2023/04/12 04:20:49;;;;;;;12.68;4.95;;;;;;;;;;7389614;19;20273;-68
2023/04/12 04:23:16;;;;;;;13.48;5.25;;;;;;;;;;7390750;19;20356;-70
2023/04/12 04:25:41;;;;;;;9.93;5.20;;;;;;;;;;7391976;19;19999;-69
2023/04/12 04:28:07;;;;;;;10.85;5.07;;;;;;;;;;7391331;19;20487;-70
2023/04/12 04:30:37;;;;;;;10.32;5.03;;;;;;;;;;7388081;19;20308;-70
2023/04/12 04:33:06;;;;;;;13.68;5.38;;;;;;;;;;7391951;19;20006;-71
2023/04/12 04:35:31;;;;;;;13.60;5.50;;;;;;;;;;7389162;19;20002;-71
2023/04/12 04:37:57;;;;;;;13.15;5.80;;;;;;;;;;7393822;19;20006;-69
2023/04/12 04:40:42;;;;;;;14.38;5.97;;;;;;;;;;7391481;19;20002;-70
2023/04/12 04:43:08;;;;;;;14.48;5.40;;;;;;;;;;7392709;19;20002;-70
2023/04/12 04:45:35;;;;;;;13.40;5.65;;;;;;;;;;7392551;19;20333;-70
2023/04/12 04:48:01;;;;;;;11.55;5.47;;;;;;;;;;7393607;19;20467;-70
2023/04/12 04:50:30;;;;;;;12.27;5.18;;;;;;;;;;7391136;19;19991;-69
2023/04/12 04:52:55;;;;;;;11.55;4.70;;;;;;;;;;7393836;19;20316;-69
2023/04/12 04:55:21;;;;;;;14.02;6.13;;;;;;;;;;7393968;19;19990;-71
2023/04/12 04:57:46;;;;;;;11.00;4.72;;;;;;;;;;7391524;19;20015;-70
2023/04/12 05:00:13;;;;;;;10.55;3.97;;;;;;;;;;7388768;19;19998;-70
2023/04/12 05:02:41;;;;;;;11.45;3.78;;;;;;;;;;7384179;19;20051;-71
2023/04/12 05:05:12;;;;;;;8.70;3.03;;;;;;;;;;7381688;19;20338;-62
2023/04/12 05:07:37;;;;;;;8.07;3.33;;;;;;;;;;7389365;19;20262;-70
2023/04/12 05:10:03;;;;;;;11.63;3.47;;;;;;;;;;7388943;19;20481;-69
2023/04/12 05:12:30;;;;;;;10.68;3.03;;;;;;;;;;7391656;19;20002;-69
2023/04/12 05:14:55;;;;;;;7.07;2.78;;;;;;;;;;7387375;19;20436;-71
2023/04/12 05:17:21;;;;;;;5.30;2.80;;;;;;;;;;7393382;19;20043;-70
2023/04/12 05:19:46;;;;;;;6.22;2.67;;;;;;;;;;7390474;19;19994;-70
2023/04/12 05:22:19;;;;;;;7.20;2.42;;;;;;;;;;7388363;19;20062;-70
2023/04/12 05:24:44;;;;;;;6.00;2.72;;;;;;;;;;7386351;19;20017;-69
2023/04/12 05:27:09;;;;;;;8.10;2.85;;;;;;;;;;7391629;19;20459;-69
2023/04/12 05:29:35;;;;;;;4.63;2.40;;;;;;;;;;7394079;19;21096;-71
2023/04/12 05:32:01;;;;;;;5.90;2.72;;;;;;;;;;7389204;19;20350;-69
2023/04/12 05:34:29;;;;;;;6.60;2.47;;;;;;;;;;7388836;19;20023;-69
2023/04/12 05:36:55;;;;;;;4.65;2.55;;;;;;;;;;7392952;19;19994;-69
2023/04/12 05:39:21;;;;;;;6.53;2.70;;;;;;;;;;7389322;19;20007;-70
2023/04/12 05:41:46;;;;;;;10.13;3.10;;;;;;;;;;7389602;19;20013;-70
2023/04/12 05:44:12;;;;;;;7.00;2.83;;;;;;;;;;7390595;19;20017;-70
2023/04/12 05:46:37;;;;;;;9.95;2.70;;;;;;;;;;7392229;19;20665;-69
2023/04/12 05:49:02;;;;;;;5.57;2.42;;;;;;;;;;7393090;19;19991;-69
2023/04/12 05:51:28;;;;;;;9.57;2.47;;;;;;;;;;7389862;19;20002;-69
2023/04/12 05:53:53;;;;;;;4.68;2.22;;;;;;;;;;7390674;19;19995;-70
2023/04/12 05:56:18;;;;;;;8.68;2.40;;;;;;;;;;7391552;19;20464;-70
2023/04/12 05:58:43;;;;;;;4.05;2.25;;;;;;;;;;7389546;19;20025;-70
2023/04/12 06:01:09;;;;;;;8.48;2.78;;;;;;;;;;7388962;19;20001;-69
2023/04/12 06:03:40;;;;;;;4.10;2.10;;;;;;;;;;7388248;19;20070;-70
2023/04/12 06:06:06;;;;;;;10.00;2.78;;;;;;;;;;7391648;19;20441;-69
2023/04/12 06:08:31;;;;;;;5.70;2.70;;;;;;;;;;7391346;19;20003;-69
2023/04/12 06:10:57;;;;;;;9.32;2.50;;;;;;;;;;7387912;19;20017;-69
2023/04/12 06:13:22;;;;;;;4.88;2.58;;;;;;;;;;7391462;19;20006;-69
2023/04/12 06:15:47;;;;;;;7.10;1.90;;;;;;;;;;7388505;19;19994;-69
2023/04/12 06:18:12;;;;;;;5.60;2.10;;;;;;;;;;7391690;19;20024;-69
2023/04/12 06:20:39;;;;;;;5.53;2.60;;;;;;;;;;7389502;19;20036;-69
2023/04/12 06:23:05;;;;;;;3.47;1.92;;;;;;;;;;7390729;19;20456;-69
2023/04/12 06:25:30;;;;;;;4.57;2.08;;;;;;;;;;7391303;19;20015;-69
2023/04/12 06:27:56;;;;;;;5.03;2.35;;;;;;;;;;7388858;19;20002;-69
2023/04/12 06:30:21;;;;;;;5.35;2.60;;;;;;;;;;7389602;19;20002;-70
2023/04/12 06:32:46;;;;;;;6.43;2.22;;;;;;;;;;7390258;19;19998;-69
2023/04/12 06:35:12;;;;;;;5.93;2.20;;;;;;;;;;7389168;19;20041;-69
2023/04/12 06:37:37;;;;;;;7.32;2.03;;;;;;;;;;7390101;19;20005;-69
2023/04/12 06:40:03;;;;;;;4.63;1.85;;;;;;;;;;7375671;19;20338;-67
2023/04/12 06:42:28;;;;;;;4.05;2.28;;;;;;;;;;7382771;19;20006;-71
2023/04/12 06:44:54;;;;;;;4.18;2.10;;;;;;;;;;7382253;19;20003;-69
2023/04/12 06:47:21;;;;;;;6.07;2.28;;;;;;;;;;7383898;19;20009;-69
2023/04/12 06:49:46;;;;;;;4.45;2.40;;;;;;;;;;7382507;19;19999;-70
2023/04/12 06:52:12;;;;;;;3.17;1.90;;;;;;;;;;7383163;19;20006;-71
2023/04/12 06:54:38;;;;;;;5.20;2.20;;;;;;;;;;7382010;19;20006;-70
2023/04/12 06:57:08;;;;;;;3.95;1.98;;;;;;;;;;7384885;19;20102;-71
2023/04/12 06:59:33;;;;;;;5.47;2.20;;;;;;;;;;7385148;19;19994;-70
2023/04/12 07:01:59;;;;;;;8.05;2.40;;;;;;;;;;7381760;19;20005;-70
2023/04/12 07:04:24;;;;;;;7.63;2.75;;;;;;;;;;7385030;19;19999;-71
2023/04/12 07:06:49;;;;;;;6.78;2.00;;;;;;;;;;7383765;19;20476;-70
2023/04/12 07:09:14;;;;;;;7.95;2.28;;;;;;;;;;7385553;19;20666;-70
2023/04/12 07:11:40;;;;;;;6.63;2.38;;;;;;;;;;7382050;19;19994;-70
2023/04/12 07:14:05;;;;;;;6.05;2.72;;;;;;;;;;7383041;19;20002;-70
2023/04/12 07:16:31;;;;;;;6.10;2.40;;;;;;;;;;7382046;19;20019;-71
2023/04/12 07:18:58;;;;;;;3.85;2.20;;;;;;;;;;7385660;19;19999;-70
2023/04/12 07:21:23;;;;;;;5.25;2.50;;;;;;;;;;7383042;19;20002;-70
2023/04/12 07:23:51;;;;;;;4.60;2.30;;;;;;;;;;7383063;19;19991;-69
2023/04/12 07:26:20;;;;;;;9.52;2.60;;;;;;;;;;7387031;19;19991;-70
2023/04/12 07:28:49;;;;;;;8.25;2.92;;;;;;;;;;7389836;19;20412;-70
2023/04/12 07:31:14;;;;;;;6.63;2.65;;;;;;;;;;7388371;19;20072;-70
2023/04/12 07:33:40;;;;;;;5.93;2.60;;;;;;;;;;7388659;19;20436;-70
2023/04/12 07:36:05;;;;;;;6.10;2.72;;;;;;;;;;7383357;19;20011;-71
2023/04/12 07:38:31;;;;;;;6.38;2.50;;;;;;;;;;7383955;19;20006;-70
2023/04/12 07:40:56;;;;;;;6.18;2.28;;;;;;;;;;7382695;19;19995;-69
2023/04/12 07:43:22;;;;;;;13.85;2.92;;;;;;;;;;7384865;19;20005;-71
2023/04/12 07:45:48;;;;;;;5.90;2.80;;;;;;;;;;7383067;19;20006;-72
2023/04/12 07:48:13;;;;;;;7.90;3.03;;;;;;;;;;7387627;19;20515;-70
2023/04/12 07:50:40;;;;;;;12.90;3.20;;;;;;;;;;7393743;19;20015;-70
2023/04/12 07:53:22;;;;;;;6.35;2.40;;;;;;;;;;7387931;19;20003;-68
2023/04/12 07:55:48;;;;;;;5.63;2.88;;;;;;;;;;7395189;19;20015;-72
2023/04/12 07:58:17;;;;;;;5.57;3.05;;;;;;;;;;7394182;19;20071;-73
2023/04/12 08:00:44;;;;;;;6.72;3.22;;;;;;;;;;7394879;19;20007;-70
2023/04/12 08:03:13;;;;;;;8.13;3.08;;;;;;;;;;7395368;19;20006;-75
2023/04/12 08:05:39;;;;;;;6.93;3.05;;;;;;;;;;7396160;19;20005;-74
2023/04/12 08:08:05;;;;;;;7.53;3.13;;;;;;;;;;7393052;19;20007;-70
2023/04/12 08:10:31;;;;;;;5.90;2.83;;;;;;;;;;7392611;19;20002;-72
2023/04/12 08:12:57;;;;;;;7.20;3.20;;;;;;;;;;7387729;19;20023;-72
2023/04/12 08:15:22;;;;;;;6.20;3.58;;;;;;;;;;7387594;19;19998;-72
2023/04/12 08:17:47;;;;;;;10.13;3.38;;;;;;;;;;7395126;19;20031;-72
2023/04/12 08:20:14;;;;;;;5.30;3.20;;;;;;;;;;7391434;19;19998;-72
2023/04/12 08:22:41;;;;;;;9.98;4.05;;;;;;;;;;7389019;19;20538;-75
2023/04/12 08:25:07;;;;;;;8.85;3.50;;;;;;;;;;7383263;19;20368;-76
2023/04/12 08:27:32;;;;;;;7.10;3.47;;;;;;;;;;7389898;19;20070;-77
2023/04/12 08:29:58;;;;;;;3.30;1.80;;;;;;;;;;7389570;19;20424;-81
2023/04/12 08:32:23;;;;;;;6.18;3.63;;;;;;;;;;7386165;19;20330;-79
2023/04/12 08:34:48;;;;;;;7.85;3.72;;;;;;;;;;7382936;19;20018;-77
2023/04/12 08:37:15;;;;;;;9.15;3.83;;;;;;;;;;7394299;19;20074;-74
2023/04/12 08:39:43;;;;;;;6.15;3.25;;;;;;;;;;7390834;19;20006;-76
2023/04/12 08:42:09;;;;;;;7.85;3.33;;;;;;;;;;7388096;19;20027;-75
2023/04/12 08:44:38;;;;;;;8.77;4.35;;;;;;;;;;7387831;19;20016;-73
2023/04/12 08:47:06;;;;;;;8.35;4.15;;;;;;;;;;7391630;19;20029;-76
2023/04/12 08:49:33;;;;;;;7.20;4.15;;;;;;;;;;7390447;19;19998;-75
2023/04/12 08:52:06;;;;;;;6.85;3.75;;;;;;;;;;7388407;19;20017;-71
2023/04/12 08:54:35;;;;;;;7.78;3.75;;;;;;;;;;7386679;19;20005;-73
2023/04/12 08:57:06;;;;;;;10.55;4.05;;;;;;;;;;7389280;19;20005;-74
2023/04/12 08:59:34;;;;;;;6.35;3.95;;;;;;;;;;7392222;19;20002;-76
2023/04/12 09:01:59;;;;;;;8.75;4.07;;;;;;;;;;7389657;19;20002;-74
2023/04/12 09:04:28;;;;;;;6.97;3.80;;;;;;;;;;7390791;19;20025;-76
2023/04/12 09:06:57;;;;;;;9.80;4.03;;;;;;;;;;7392191;19;20006;-75
2023/04/12 09:09:45;;;;;;;8.15;4.20;;;;;;;;;;7393614;19;20432;-75
2023/04/12 09:12:10;;;;;;;8.07;4.22;;;;;;;;;;7386565;19;20023;-75
2023/04/12 09:14:37;;;;;;;8.73;3.80;;;;;;;;;;7388534;19;20426;-74
2023/04/12 09:17:03;;;;;;;8.35;4.03;;;;;;;;;;7389274;19;20038;-74
2023/04/12 09:19:37;;;;;;;10.90;3.88;;;;;;;;;;7377116;19;20042;-74
2023/04/12 09:22:03;;;;;;;9.13;3.95;;;;;;;;;;7382104;19;20002;-74
2023/04/12 09:24:28;;;;;;;7.13;4.00;;;;;;;;;;7384455;19;19998;-74
2023/04/12 09:27:05;;;;;;;8.82;4.50;;;;;;;;;;7385529;19;20428;-74
2023/04/12 09:29:31;;;;;;;10.70;4.35;;;;;;;;;;7387899;19;20400;-74
2023/04/12 09:32:02;;;;;;;9.02;4.10;;;;;;;;;;7386734;19;20066;-74
2023/04/12 09:34:33;;;;;;;7.03;3.85;;;;;;;;;;7386056;19;20009;-74
2023/04/12 09:36:59;;;;;;;;;;;;;;;;;;7393276;19;20005;-74
2023/04/12 09:39:32;;;;;;;8.85;3.30;;;;;;;;;;7346753;19;19926;-74
2023/04/12 09:42:09;;;;;;;8.70;4.10;;;;;;;;;;7385595;19;20002;-74
2023/04/12 09:44:34;;;;;;;6.93;3.53;;;;;;;;;;7388946;19;20009;-75
2023/04/12 09:47:04;;;;;;;7.75;3.70;;;;;;;;;;7386740;19;20062;-75
2023/04/12 09:49:43;;;;;;;7.78;3.33;;;;;;;;;;7388440;19;20459;-75
2023/04/12 09:52:12;;;;;;;6.78;3.47;;;;;;;;;;7385670;19;20023;-75
2023/04/12 09:54:47;;;;;;;7.07;3.80;;;;;;;;;;7396509;19;20002;-74
2023/04/12 09:57:16;;;;;;;8.25;3.40;;;;;;;;;;7389103;19;20074;-74
2023/04/12 09:59:43;;;;;;;7.75;3.53;;;;;;;;;;7389644;19;19999;-74
2023/04/12 10:02:17;;;;;;;7.00;3.70;;;;;;;;;;7385649;19;20006;-75
2023/04/12 10:04:42;;;;;;;9.00;4.18;;;;;;;;;;7387175;19;20340;-75
2023/04/12 10:07:08;;;;;;;7.18;3.92;;;;;;;;;;7386714;19;19999;-74
2023/04/12 10:09:36;;;;;;;9.30;3.92;;;;;;;;;;7389453;19;20040;-74
2023/04/12 10:12:02;;;;;;;8.52;3.90;;;;;;;;;;7383988;19;20023;-75
2023/04/12 10:14:28;;;;;;;8.25;3.70;;;;;;;;;;7387072;19;20014;-72
2023/04/12 10:16:59;;;;;;;9.85;3.80;;;;;;;;;;7385883;19;20373;-72
2023/04/12 10:19:25;;;;;;;;;;;;;;;;;;7388709;19;20002;-73
2023/04/12 10:21:51;;;;;;;7.28;3.67;;;;;;;;;;7382705;19;19916;-74
2023/04/12 10:24:19;;;;;;;8.05;3.95;;;;;;;;;;7387850;19;20131;-72
2023/04/12 10:26:49;;;;;;;11.10;4.15;;;;;;;;;;7387071;19;20007;-72
2023/04/12 10:29:26;;;;;;;7.75;3.95;;;;;;;;;;7385680;19;20010;-73
2023/04/12 10:31:53;;;;;;;8.93;4.22;;;;;;;;;;7386173;19;20011;-75
2023/04/12 10:34:23;;;;;;;9.80;3.83;;;;;;;;;;7385728;19;20086;-73
2023/04/12 10:36:53;;;;;;;8.05;4.28;;;;;;;;;;7385698;19;20005;-74
2023/04/12 10:39:35;;;;;;;11.30;4.82;;;;;;;;;;7384433;19;20754;-75
2023/04/12 10:42:26;;;;;;;9.90;4.03;;;;;;;;;;7381240;19;20452;-74
2023/04/12 10:44:54;;;;;;;6.70;3.95;;;;;;;;;;7383898;19;19997;-74
2023/04/12 10:47:47;;;;;;;11.65;4.47;;;;;;;;;;7387689;19;20416;-74
2023/04/12 10:50:34;;;;;;;11.70;3.55;;;;;;;;;;7385156;19;20014;-74
2023/04/12 10:53:23;;;;;;;8.70;4.03;;;;;;;;;;7390683;19;20025;-75
2023/04/12 10:55:52;;;;;;;8.82;3.50;;;;;;;;;;7387722;19;20007;-74
2023/04/12 10:58:49;;;;;;;7.97;4.35;;;;;;;;;;7389659;19;20096;-80
2023/04/12 11:01:17;;;;;;;7.05;3.63;;;;;;;;;;7388412;19;20013;-74
2023/04/12 11:04:05;;;;;;;10.30;4.20;;;;;;;;;;7387697;19;19995;-74
2023/04/12 11:07:08;;;;;;;10.18;3.90;;;;;;;;;;7388675;19;19999;-74
2023/04/12 11:09:36;;;;;;;10.05;4.20;;;;;;;;;;7383776;19;19991;-74
2023/04/12 11:12:04;;;;;;;10.02;4.47;;;;;;;;;;7389367;19;20014;-75
2023/04/12 11:14:47;;;;;;;11.27;4.10;;;;;;;;;;7387413;19;19994;-75
2023/04/12 11:17:13;;;;;;;10.32;4.20;;;;;;;;;;7389939;19;20007;-74
2023/04/12 11:19:41;;;;;;;8.90;4.15;;;;;;;;;;7389749;19;20002;-74
2023/04/12 11:22:09;;;;;;;6.43;3.30;;;;;;;;;;7388097;19;20002;-75
2023/04/12 11:24:46;;;;;;;8.07;3.85;;;;;;;;;;7393253;19;20005;-75
2023/04/12 11:27:12;;;;;;;6.75;3.65;;;;;;;;;;7397888;19;20016;-74
2023/04/12 11:29:42;;;;;;;7.07;4.07;;;;;;;;;;7399097;19;20352;-74
2023/04/12 11:32:13;;;;;;;7.03;3.85;;;;;;;;;;7396697;19;20065;-73
2023/04/12 11:34:40;;;;;;;8.73;4.28;;;;;;;;;;7393899;19;20002;-75
2023/04/12 11:37:07;;;;;;;6.90;3.45;;;;;;;;;;7397346;19;20023;-73
2023/04/12 11:39:34;;;;;;;9.55;4.18;;;;;;;;;;7396797;19;19999;-75
2023/04/12 11:42:03;;;;;;;7.88;3.90;;;;;;;;;;7392358;19;19998;-75
2023/04/12 11:44:31;;;;;;;7.38;3.92;;;;;;;;;;7392305;19;20006;-75
2023/04/12 11:46:57;;;;;;;9.75;4.10;;;;;;;;;;7396094;19;20011;-74
2023/04/12 11:49:22;;;;;;;6.47;3.67;;;;;;;;;;7396696;19;20003;-75
2023/04/12 11:51:48;;;;;;;7.75;3.95;;;;;;;;;;7393151;19;19994;-73
2023/04/12 11:54:13;;;;;;;8.73;3.35;;;;;;;;;;7393691;19;19995;-73
2023/04/12 11:56:40;;;;;;;7.50;3.53;;;;;;;;;;7395920;19;19994;-75
2023/04/12 11:59:06;;;;;;;8.90;3.47;;;;;;;;;;7396643;19;20883;-75
2023/04/12 12:01:33;;;;;;;7.22;3.50;;;;;;;;;;7394933;19;20109;-74
2023/04/12 12:03:59;;;;;;;8.63;3.38;;;;;;;;;;7393696;19;20002;-74
2023/04/12 12:06:28;;;;;;;6.90;3.38;;;;;;;;;;7395844;19;20002;-75
2023/04/12 12:08:57;;;;;;;7.30;2.85;;;;;;;;;;7393398;19;20554;-76
2023/04/12 12:11:23;;;;;;;5.90;2.90;;;;;;;;;;7392366;19;20006;-76
2023/04/12 12:13:51;;;;;;;8.70;3.70;;;;;;;;;;7389982;19;20114;-75
2023/04/12 12:16:18;;;;;;;6.25;3.15;;;;;;;;;;7390662;19;20337;-75
2023/04/12 12:18:48;;;;;;;9.20;3.65;;;;;;;;;;7393382;19;20006;-74
2023/04/12 12:21:14;;;;;;;9.20;3.60;;;;;;;;;;7391112;19;20507;-67
2023/04/12 12:23:42;;;;;;;8.85;3.17;;;;;;;;;;7395930;19;20014;-68
2023/04/12 12:26:07;;;;;;;10.95;3.78;;;;;;;;;;7393283;19;19999;-67
2023/04/12 12:28:37;;;;;;;7.38;3.05;;;;;;;;;;7388524;19;20027;-75
2023/04/12 12:31:05;;;;;;;5.30;2.50;;;;;;;;;;7391836;19;20344;-76
2023/04/12 12:33:38;;;;;;;10.30;3.53;;;;;;;;;;7394376;19;20265;-77
2023/04/12 12:36:04;;;;;;;4.82;2.22;;;;;;;;;;7395422;19;20452;-79
2023/04/12 12:38:35;;;;;;;7.47;2.42;;;;;;;;;;7393495;19;20005;-78
2023/04/12 12:41:22;;;;;;;9.00;2.50;;;;;;;;;;7392006;19;20388;-76
2023/04/12 12:43:49;;;;;;;4.88;2.78;;;;;;;;;;7391149;19;20009;-77
2023/04/12 12:46:16;;;;;;;4.70;2.50;;;;;;;;;;7395244;19;20079;-76
2023/04/12 12:48:42;;;;;;;5.03;2.50;;;;;;;;;;7388626;19;20099;-77
2023/04/12 12:51:08;;;;;;;3.63;2.30;;;;;;;;;;7393519;19;20070;-76
2023/04/12 12:53:39;;;;;;;6.70;2.67;;;;;;;;;;7394605;19;20038;-76
2023/04/12 12:56:05;;;;;;;3.90;2.00;;;;;;;;;;7395986;19;20002;-78
2023/04/12 12:58:30;;;;;;;6.30;2.38;;;;;;;;;;7394573;19;20251;-78
2023/04/12 13:00:56;;;;;;;3.92;2.05;;;;;;;;;;7393145;19;20009;-78
2023/04/12 13:03:21;;;;;;;4.53;1.95;;;;;;;;;;7395343;19;19998;-76
2023/04/12 13:05:47;;;;;;;3.20;1.80;;;;;;;;;;7391327;19;20002;-77
2023/04/12 13:08:12;;;;;;;3.72;1.70;;;;;;;;;;7391701;19;20146;-76
2023/04/12 13:10:37;;;;;;;7.28;1.85;;;;;;;;;;7393376;19;20002;-76
2023/04/12 13:13:03;;;;;;;4.35;1.90;;;;;;;;;;7394456;19;20001;-78
2023/04/12 13:15:28;;;;;;;2.08;1.45;;;;;;;;;;7389581;19;20002;-77
2023/04/12 13:17:54;;;;;;;1.23;1.13;;;;;;;;;;7392715;19;19997;-76
2023/04/12 13:20:23;;;;;;;1.48;1.27;;;;;;;;;;7391945;19;20010;-76
2023/04/12 13:22:50;;;;;;;2.65;1.58;;;;;;;;;;7390063;19;19999;-76
2023/04/12 13:25:18;;;;;;;3.92;1.70;;;;;;;;;;7390024;19;20110;-76
2023/04/12 13:27:44;;;;;;;3.83;1.88;;;;;;;;;;7391649;19;20011;-74
2023/04/12 13:30:09;;;;;;;4.80;2.03;;;;;;;;;;7391094;19;19998;-76
2023/04/12 13:32:35;;;;;;;2.88;1.98;;;;;;;;;;7392252;19;20512;-75
2023/04/12 13:35:00;;;;;;;3.08;1.85;;;;;;;;;;7390618;19;20014;-75
2023/04/12 13:37:26;;;;;;;4.13;1.52;;;;;;;;;;7388141;19;20002;-76
2023/04/12 13:39:51;;;;;;;1.30;1.00;;;;;;;;;;7391067;19;20014;-77
2023/04/12 13:42:17;;;;;;;2.33;1.25;;;;;;;;;;7387941;19;20002;-78
2023/04/12 13:44:42;;;;;;;2.38;1.02;;;;;;;;;;7390999;19;19995;-77
2023/04/12 13:47:07;;;;;;;1.38;0.80;;;;;;;;;;7390468;19;19990;-78
2023/04/12 13:49:33;;;;;;;1.10;1.00;;;;;;;;;;7392191;19;20062;-77
2023/04/12 13:51:58;;;;;;;0.70;0.70;;;;;;;;;;7386135;19;19999;-78
2023/04/12 13:54:24;;;;;;;2.55;1.00;;;;;;;;;;7388566;19;20045;-77
2023/04/12 13:56:50;;;;;;;2.97;0.85;;;;;;;;;;7388820;19;19995;-77
2023/04/12 13:59:16;;;;;;;1.02;0.90;;;;;;;;;;7392412;19;19998;-76
2023/04/12 14:01:41;;;;;;;1.15;0.82;;;;;;;;;;7388957;19;20009;-80
2023/04/12 14:04:07;;;;;;;1.60;0.90;;;;;;;;;;7389724;19;19998;-80
2023/04/12 14:06:32;;;;;;;0.85;0.68;;;;;;;;;;7390115;19;19999;-79
2023/04/12 14:08:57;;;;;;;0.77;0.60;;;;;;;;;;7391702;19;19991;-82
2023/04/12 14:11:26;;;;;;;1.08;0.82;;;;;;;;;;7391787;19;19999;-82
2023/04/12 14:13:52;;;;;;;1.33;0.90;;;;;;;;;;7390024;19;20021;-79
2023/04/12 14:16:17;;;;;;;0.85;0.63;;;;;;;;;;7390789;19;20069;-74
2023/04/12 14:18:43;;;;;;;1.77;1.10;;;;;;;;;;7392088;19;20001;-74
2023/04/12 14:21:09;;;;;;;1.25;0.85;;;;;;;;;;7386510;19;20452;-76
2023/04/12 14:23:34;;;;;;;1.73;1.05;;;;;;;;;;7391835;19;20357;-75
2023/04/12 14:25:59;;;;;;;1.33;1.20;;;;;;;;;;7391330;19;20002;-75
2023/04/12 14:28:29;;;;;;;1.45;1.10;;;;;;;;;;7385698;19;20513;-78
2023/04/12 14:30:59;;;;;;;1.05;0.90;;;;;;;;;;7384429;19;20353;-77
2023/04/12 14:33:24;;;;;;;1.08;0.80;;;;;;;;;;7387001;19;20511;-77
2023/04/12 14:35:50;;;;;;;0.80;0.80;;;;;;;;;;7385189;19;20025;-77
2023/04/12 14:38:15;;;;;;;0.80;0.80;;;;;;;;;;7386341;19;20452;-76
2023/04/12 14:40:41;;;;;;;1.42;1.10;;;;;;;;;;7382773;19;20012;-76
2023/04/12 14:43:06;;;;;;;1.23;1.00;;;;;;;;;;7385287;19;20011;-76
2023/04/12 14:45:32;;;;;;;1.60;1.05;;;;;;;;;;7384051;19;20536;-76